Everson, Washington
Current Conditions -  °F | °C
As of 11:00 PM on Thursday 30 Oct 2014 (Local Time) from CYXX Reporting Station
Light Rain Light Rain  
Wind Chill: 52°   Ceiling: 3000
Heat Index: 52°   Visibility: 10mi
Dew Point: 52°   Wind: 6mph
Humidity: 100%   Direction: 180°S
Pressure: 29.78"   Gusts: NA
Location:  48.92°N, 122.34°W
Report Text: CYXX 310600Z 18005KT 10SM -RA OVC030 11/11 A2978 RMK NS8 SLP085
Loading
Personal Weather Stations






























Interactive Weather Map
Tropical Storm Tracking
New forecast layout! Learn more

10-Day Weather Forecast

Advertisements
Track Severe Weather on mobile